sensor_id;sensor_type;location;lat;lon;timestamp;P1;durP1;ratioP1;P2;durP2;ratioP2
24143;SDS011;12307;50.828;6.080;2022-09-09T00:02:01;1.48;;;0.40;;
24143;SDS011;12307;50.828;6.080;2022-09-09T00:04:35;1.30;;;0.57;;
24143;SDS011;12307;50.828;6.080;2022-09-09T00:07:04;1.00;;;0.40;;
24143;SDS011;12307;50.828;6.080;2022-09-09T00:09:35;0.65;;;0.32;;
24143;SDS011;12307;50.828;6.080;2022-09-09T00:12:12;1.10;;;0.47;;
24143;SDS011;12307;50.828;6.080;2022-09-09T00:14:45;1.30;;;0.50;;
24143;SDS011;12307;50.828;6.080;2022-09-09T00:17:20;1.00;;;0.45;;
24143;SDS011;12307;50.828;6.080;2022-09-09T00:19:59;0.73;;;0.40;;
24143;SDS011;12307;50.828;6.080;2022-09-09T00:22:34;1.58;;;0.50;;
24143;SDS011;12307;50.828;6.080;2022-09-09T00:25:09;0.70;;;0.30;;
24143;SDS011;12307;50.828;6.080;2022-09-09T00:27:40;0.80;;;0.43;;
24143;SDS011;12307;50.828;6.080;2022-09-09T00:30:14;0.65;;;0.35;;
24143;SDS011;12307;50.828;6.080;2022-09-09T00:32:44;0.85;;;0.55;;
24143;SDS011;12307;50.828;6.080;2022-09-09T00:35:14;0.80;;;0.40;;
24143;SDS011;12307;50.828;6.080;2022-09-09T00:37:47;1.95;;;0.60;;
24143;SDS011;12307;50.828;6.080;2022-09-09T00:40:18;1.30;;;0.60;;
24143;SDS011;12307;50.828;6.080;2022-09-09T00:42:49;0.85;;;0.40;;
24143;SDS011;12307;50.828;6.080;2022-09-09T00:45:32;1.52;;;0.57;;
24143;SDS011;12307;50.828;6.080;2022-09-09T00:48:12;1.35;;;0.50;;
24143;SDS011;12307;50.828;6.080;2022-09-09T00:50:42;0.77;;;0.47;;
24143;SDS011;12307;50.828;6.080;2022-09-09T00:53:16;0.93;;;0.47;;
24143;SDS011;12307;50.828;6.080;2022-09-09T00:55:53;0.70;;;0.35;;
24143;SDS011;12307;50.828;6.080;2022-09-09T00:58:25;1.15;;;0.40;;
24143;SDS011;12307;50.828;6.080;2022-09-09T01:00:53;0.90;;;0.43;;
24143;SDS011;12307;50.828;6.080;2022-09-09T01:03:25;0.63;;;0.40;;
24143;SDS011;12307;50.828;6.080;2022-09-09T01:06:11;1.75;;;0.40;;
24143;SDS011;12307;50.828;6.080;2022-09-09T01:08:42;0.77;;;0.40;;
24143;SDS011;12307;50.828;6.080;2022-09-09T01:11:17;0.75;;;0.30;;
24143;SDS011;12307;50.828;6.080;2022-09-09T01:13:49;0.82;;;0.40;;
24143;SDS011;12307;50.828;6.080;2022-09-09T01:16:20;0.93;;;0.50;;
24143;SDS011;12307;50.828;6.080;2022-09-09T01:18:46;1.30;;;0.30;;
24143;SDS011;12307;50.828;6.080;2022-09-09T01:21:20;0.88;;;0.40;;
24143;SDS011;12307;50.828;6.080;2022-09-09T01:24:00;1.02;;;0.40;;
24143;SDS011;12307;50.828;6.080;2022-09-09T01:26:40;0.65;;;0.30;;
24143;SDS011;12307;50.828;6.080;2022-09-09T01:29:07;1.27;;;0.60;;
24143;SDS011;12307;50.828;6.080;2022-09-09T01:31:35;1.20;;;0.50;;
24143;SDS011;12307;50.828;6.080;2022-09-09T01:34:07;0.82;;;0.50;;
24143;SDS011;12307;50.828;6.080;2022-09-09T01:36:37;0.63;;;0.40;;
24143;SDS011;12307;50.828;6.080;2022-09-09T01:39:05;0.90;;;0.52;;
24143;SDS011;12307;50.828;6.080;2022-09-09T01:41:31;0.60;;;0.32;;
24143;SDS011;12307;50.828;6.080;2022-09-09T01:43:58;1.15;;;0.40;;
24143;SDS011;12307;50.828;6.080;2022-09-09T01:46:24;1.00;;;0.40;;
24143;SDS011;12307;50.828;6.080;2022-09-09T01:48:50;0.68;;;0.30;;
24143;SDS011;12307;50.828;6.080;2022-09-09T01:51:18;2.20;;;0.60;;
24143;SDS011;12307;50.828;6.080;2022-09-09T01:53:43;0.73;;;0.45;;
24143;SDS011;12307;50.828;6.080;2022-09-09T01:56:14;1.00;;;0.45;;
24143;SDS011;12307;50.828;6.080;2022-09-09T01:59:04;0.68;;;0.40;;
24143;SDS011;12307;50.828;6.080;2022-09-09T02:01:46;1.27;;;0.50;;
24143;SDS011;12307;50.828;6.080;2022-09-09T02:04:26;1.73;;;0.40;;
24143;SDS011;12307;50.828;6.080;2022-09-09T02:07:00;0.60;;;0.30;;
24143;SDS011;12307;50.828;6.080;2022-09-09T02:09:26;1.00;;;0.50;;
24143;SDS011;12307;50.828;6.080;2022-09-09T02:11:57;0.85;;;0.40;;
24143;SDS011;12307;50.828;6.080;2022-09-09T02:14:27;1.30;;;0.20;;
24143;SDS011;12307;50.828;6.080;2022-09-09T02:16:59;1.42;;;0.50;;
24143;SDS011;12307;50.828;6.080;2022-09-09T02:19:29;0.75;;;0.38;;
24143;SDS011;12307;50.828;6.080;2022-09-09T02:21:57;0.85;;;0.50;;
24143;SDS011;12307;50.828;6.080;2022-09-09T02:24:25;0.50;;;0.40;;
24143;SDS011;12307;50.828;6.080;2022-09-09T02:26:52;0.60;;;0.30;;
24143;SDS011;12307;50.828;6.080;2022-09-09T02:29:21;0.80;;;0.30;;
24143;SDS011;12307;50.828;6.080;2022-09-09T02:31:51;0.98;;;0.52;;
24143;SDS011;12307;50.828;6.080;2022-09-09T02:34:20;0.88;;;0.38;;
24143;SDS011;12307;50.828;6.080;2022-09-09T02:36:49;0.63;;;0.30;;
24143;SDS011;12307;50.828;6.080;2022-09-09T02:39:18;0.85;;;0.40;;
24143;SDS011;12307;50.828;6.080;2022-09-09T02:41:44;0.85;;;0.47;;
24143;SDS011;12307;50.828;6.080;2022-09-09T02:44:10;0.98;;;0.30;;
24143;SDS011;12307;50.828;6.080;2022-09-09T02:46:41;0.90;;;0.50;;
24143;SDS011;12307;50.828;6.080;2022-09-09T02:49:27;1.50;;;0.60;;
24143;SDS011;12307;50.828;6.080;2022-09-09T02:52:02;0.47;;;0.30;;
24143;SDS011;12307;50.828;6.080;2022-09-09T02:54:31;0.85;;;0.50;;
24143;SDS011;12307;50.828;6.080;2022-09-09T02:56:59;0.40;;;0.35;;
24143;SDS011;12307;50.828;6.080;2022-09-09T02:59:29;0.60;;;0.40;;
24143;SDS011;12307;50.828;6.080;2022-09-09T03:01:55;0.80;;;0.55;;
24143;SDS011;12307;50.828;6.080;2022-09-09T03:04:21;0.75;;;0.40;;
24143;SDS011;12307;50.828;6.080;2022-09-09T03:06:48;0.85;;;0.50;;
24143;SDS011;12307;50.828;6.080;2022-09-09T03:09:14;1.38;;;0.50;;
24143;SDS011;12307;50.828;6.080;2022-09-09T03:11:39;0.47;;;0.38;;
24143;SDS011;12307;50.828;6.080;2022-09-09T03:14:05;0.50;;;0.28;;
24143;SDS011;12307;50.828;6.080;2022-09-09T03:16:31;1.10;;;0.45;;
24143;SDS011;12307;50.828;6.080;2022-09-09T03:18:59;0.68;;;0.40;;
24143;SDS011;12307;50.828;6.080;2022-09-09T03:21:24;0.40;;;0.22;;
24143;SDS011;12307;50.828;6.080;2022-09-09T03:23:51;0.32;;;0.30;;
24143;SDS011;12307;50.828;6.080;2022-09-09T03:26:17;1.02;;;0.40;;
24143;SDS011;12307;50.828;6.080;2022-09-09T03:28:43;0.63;;;0.43;;
24143;SDS011;12307;50.828;6.080;2022-09-09T03:31:10;0.98;;;0.40;;
24143;SDS011;12307;50.828;6.080;2022-09-09T03:33:36;0.73;;;0.40;;
24143;SDS011;12307;50.828;6.080;2022-09-09T03:36:02;0.40;;;0.28;;
24143;SDS011;12307;50.828;6.080;2022-09-09T03:38:28;0.90;;;0.38;;
24143;SDS011;12307;50.828;6.080;2022-09-09T03:40:56;0.40;;;0.30;;
24143;SDS011;12307;50.828;6.080;2022-09-09T03:43:25;1.38;;;0.40;;
24143;SDS011;12307;50.828;6.080;2022-09-09T03:45:52;0.90;;;0.45;;
24143;SDS011;12307;50.828;6.080;2022-09-09T03:48:18;0.85;;;0.30;;
24143;SDS011;12307;50.828;6.080;2022-09-09T03:50:44;1.33;;;0.38;;
24143;SDS011;12307;50.828;6.080;2022-09-09T03:53:10;1.05;;;0.50;;
24143;SDS011;12307;50.828;6.080;2022-09-09T03:55:36;0.93;;;0.50;;
24143;SDS011;12307;50.828;6.080;2022-09-09T03:58:03;1.00;;;0.40;;
24143;SDS011;12307;50.828;6.080;2022-09-09T04:00:29;0.32;;;0.30;;
24143;SDS011;12307;50.828;6.080;2022-09-09T04:02:55;1.15;;;0.43;;
24143;SDS011;12307;50.828;6.080;2022-09-09T04:05:21;0.43;;;0.43;;
24143;SDS011;12307;50.828;6.080;2022-09-09T04:07:47;2.55;;;0.50;;
24143;SDS011;12307;50.828;6.080;2022-09-09T04:10:13;0.52;;;0.30;;
24143;SDS011;12307;50.828;6.080;2022-09-09T04:12:38;0.75;;;0.30;;
24143;SDS011;12307;50.828;6.080;2022-09-09T04:15:06;0.75;;;0.40;;
24143;SDS011;12307;50.828;6.080;2022-09-09T04:17:32;1.15;;;0.40;;
24143;SDS011;12307;50.828;6.080;2022-09-09T04:19:58;1.05;;;0.40;;
24143;SDS011;12307;50.828;6.080;2022-09-09T04:22:23;0.90;;;0.40;;
24143;SDS011;12307;50.828;6.080;2022-09-09T04:24:49;0.40;;;0.28;;
24143;SDS011;12307;50.828;6.080;2022-09-09T04:27:15;2.13;;;0.50;;
24143;SDS011;12307;50.828;6.080;2022-09-09T04:29:40;1.00;;;0.40;;
24143;SDS011;12307;50.828;6.080;2022-09-09T04:32:07;1.25;;;0.30;;
24143;SDS011;12307;50.828;6.080;2022-09-09T04:34:33;0.88;;;0.45;;
24143;SDS011;12307;50.828;6.080;2022-09-09T04:36:58;0.50;;;0.30;;
24143;SDS011;12307;50.828;6.080;2022-09-09T04:39:25;0.95;;;0.40;;
24143;SDS011;12307;50.828;6.080;2022-09-09T04:41:51;1.50;;;0.45;;
24143;SDS011;12307;50.828;6.080;2022-09-09T04:44:16;0.73;;;0.35;;
24143;SDS011;12307;50.828;6.080;2022-09-09T04:46:42;0.43;;;0.40;;
24143;SDS011;12307;50.828;6.080;2022-09-09T04:49:09;0.70;;;0.40;;
24143;SDS011;12307;50.828;6.080;2022-09-09T04:51:35;1.92;;;0.40;;
24143;SDS011;12307;50.828;6.080;2022-09-09T04:54:00;0.73;;;0.40;;
24143;SDS011;12307;50.828;6.080;2022-09-09T04:56:26;0.65;;;0.40;;
24143;SDS011;12307;50.828;6.080;2022-09-09T04:58:52;1.10;;;0.40;;
24143;SDS011;12307;50.828;6.080;2022-09-09T05:01:18;0.30;;;0.30;;
24143;SDS011;12307;50.828;6.080;2022-09-09T05:03:46;1.70;;;0.52;;
24143;SDS011;12307;50.828;6.080;2022-09-09T05:06:14;0.40;;;0.25;;
24143;SDS011;12307;50.828;6.080;2022-09-09T05:08:42;1.40;;;0.50;;
24143;SDS011;12307;50.828;6.080;2022-09-09T05:11:15;0.55;;;0.30;;
24143;SDS011;12307;50.828;6.080;2022-09-09T05:13:42;0.60;;;0.40;;
24143;SDS011;12307;50.828;6.080;2022-09-09T05:16:08;1.27;;;0.40;;
24143;SDS011;12307;50.828;6.080;2022-09-09T05:18:36;0.70;;;0.50;;
24143;SDS011;12307;50.828;6.080;2022-09-09T05:21:02;1.08;;;0.30;;
24143;SDS011;12307;50.828;6.080;2022-09-09T05:23:29;0.98;;;0.40;;
24143;SDS011;12307;50.828;6.080;2022-09-09T05:25:55;0.80;;;0.40;;
24143;SDS011;12307;50.828;6.080;2022-09-09T05:28:21;1.05;;;0.43;;
24143;SDS011;12307;50.828;6.080;2022-09-09T05:30:54;1.08;;;0.40;;
24143;SDS011;12307;50.828;6.080;2022-09-09T05:33:20;1.50;;;0.50;;
24143;SDS011;12307;50.828;6.080;2022-09-09T05:35:46;0.70;;;0.30;;
24143;SDS011;12307;50.828;6.080;2022-09-09T05:38:12;0.50;;;0.40;;
24143;SDS011;12307;50.828;6.080;2022-09-09T05:40:38;1.15;;;0.57;;
24143;SDS011;12307;50.828;6.080;2022-09-09T05:43:12;0.60;;;0.40;;
24143;SDS011;12307;50.828;6.080;2022-09-09T05:45:38;0.40;;;0.20;;
24143;SDS011;12307;50.828;6.080;2022-09-09T05:48:03;0.38;;;0.25;;
24143;SDS011;12307;50.828;6.080;2022-09-09T05:50:29;0.70;;;0.40;;
24143;SDS011;12307;50.828;6.080;2022-09-09T05:52:55;0.50;;;0.22;;
24143;SDS011;12307;50.828;6.080;2022-09-09T05:55:20;0.45;;;0.22;;
24143;SDS011;12307;50.828;6.080;2022-09-09T05:57:49;0.70;;;0.50;;
24143;SDS011;12307;50.828;6.080;2022-09-09T06:00:16;1.50;;;0.60;;
24143;SDS011;12307;50.828;6.080;2022-09-09T06:02:42;1.05;;;0.50;;
24143;SDS011;12307;50.828;6.080;2022-09-09T06:05:08;0.88;;;0.40;;
24143;SDS011;12307;50.828;6.080;2022-09-09T06:07:35;0.82;;;0.32;;
24143;SDS011;12307;50.828;6.080;2022-09-09T06:10:02;0.93;;;0.50;;
24143;SDS011;12307;50.828;6.080;2022-09-09T06:12:28;0.95;;;0.40;;
24143;SDS011;12307;50.828;6.080;2022-09-09T06:14:55;1.20;;;0.40;;
24143;SDS011;12307;50.828;6.080;2022-09-09T06:17:21;1.02;;;0.40;;
24143;SDS011;12307;50.828;6.080;2022-09-09T06:19:47;1.08;;;0.63;;
24143;SDS011;12307;50.828;6.080;2022-09-09T06:22:13;0.68;;;0.40;;
24143;SDS011;12307;50.828;6.080;2022-09-09T06:24:38;0.73;;;0.40;;
24143;SDS011;12307;50.828;6.080;2022-09-09T06:27:04;1.65;;;0.50;;
24143;SDS011;12307;50.828;6.080;2022-09-09T06:29:30;1.05;;;0.40;;
24143;SDS011;12307;50.828;6.080;2022-09-09T06:31:57;0.82;;;0.40;;
24143;SDS011;12307;50.828;6.080;2022-09-09T06:34:23;0.95;;;0.40;;
24143;SDS011;12307;50.828;6.080;2022-09-09T06:36:49;0.75;;;0.25;;
24143;SDS011;12307;50.828;6.080;2022-09-09T06:39:16;1.58;;;0.60;;
24143;SDS011;12307;50.828;6.080;2022-09-09T06:41:41;0.93;;;0.50;;
24143;SDS011;12307;50.828;6.080;2022-09-09T06:44:07;0.88;;;0.52;;
24143;SDS011;12307;50.828;6.080;2022-09-09T06:46:33;1.73;;;0.70;;
24143;SDS011;12307;50.828;6.080;2022-09-09T06:49:02;0.60;;;0.40;;
24143;SDS011;12307;50.828;6.080;2022-09-09T06:51:28;1.35;;;0.60;;
24143;SDS011;12307;50.828;6.080;2022-09-09T06:53:55;2.22;;;0.60;;
24143;SDS011;12307;50.828;6.080;2022-09-09T06:56:23;2.05;;;0.50;;
24143;SDS011;12307;50.828;6.080;2022-09-09T06:58:51;1.85;;;0.70;;
24143;SDS011;12307;50.828;6.080;2022-09-09T07:01:18;3.50;;;0.60;;
24143;SDS011;12307;50.828;6.080;2022-09-09T07:03:45;2.75;;;0.90;;
24143;SDS011;12307;50.828;6.080;2022-09-09T07:06:14;2.13;;;0.60;;
24143;SDS011;12307;50.828;6.080;2022-09-09T07:08:42;2.30;;;0.60;;
24143;SDS011;12307;50.828;6.080;2022-09-09T07:11:08;2.00;;;0.82;;
24143;SDS011;12307;50.828;6.080;2022-09-09T07:13:34;1.33;;;0.60;;
24143;SDS011;12307;50.828;6.080;2022-09-09T07:16:03;2.80;;;0.85;;
24143;SDS011;12307;50.828;6.080;2022-09-09T07:18:29;2.45;;;0.55;;
24143;SDS011;12307;50.828;6.080;2022-09-09T07:20:55;3.60;;;0.68;;
24143;SDS011;12307;50.828;6.080;2022-09-09T07:23:23;3.03;;;1.00;;
24143;SDS011;12307;50.828;6.080;2022-09-09T07:25:49;2.15;;;0.60;;
24143;SDS011;12307;50.828;6.080;2022-09-09T07:28:15;1.42;;;0.70;;
24143;SDS011;12307;50.828;6.080;2022-09-09T07:30:41;2.63;;;0.88;;
24143;SDS011;12307;50.828;6.080;2022-09-09T07:33:08;2.17;;;0.88;;
24143;SDS011;12307;50.828;6.080;2022-09-09T07:35:34;1.73;;;0.60;;
24143;SDS011;12307;50.828;6.080;2022-09-09T07:38:03;1.42;;;0.60;;
24143;SDS011;12307;50.828;6.080;2022-09-09T07:40:33;2.08;;;0.90;;
24143;SDS011;12307;50.828;6.080;2022-09-09T07:43:01;1.48;;;0.60;;
24143;SDS011;12307;50.828;6.080;2022-09-09T07:45:26;7.30;;;1.10;;
24143;SDS011;12307;50.828;6.080;2022-09-09T07:47:55;3.03;;;0.90;;
24143;SDS011;12307;50.828;6.080;2022-09-09T07:50:21;7.45;;;1.05;;
24143;SDS011;12307;50.828;6.080;2022-09-09T07:52:48;3.53;;;1.10;;
24143;SDS011;12307;50.828;6.080;2022-09-09T07:55:14;3.00;;;1.00;;
24143;SDS011;12307;50.828;6.080;2022-09-09T07:57:41;4.75;;;0.90;;
24143;SDS011;12307;50.828;6.080;2022-09-09T08:00:07;2.20;;;1.10;;
24143;SDS011;12307;50.828;6.080;2022-09-09T08:02:35;3.10;;;1.10;;
24143;SDS011;12307;50.828;6.080;2022-09-09T08:05:01;4.18;;;1.05;;
24143;SDS011;12307;50.828;6.080;2022-09-09T08:07:27;3.25;;;1.00;;
24143;SDS011;12307;50.828;6.080;2022-09-09T08:09:53;5.50;;;1.50;;
24143;SDS011;12307;50.828;6.080;2022-09-09T08:12:20;2.88;;;1.00;;
24143;SDS011;12307;50.828;6.080;2022-09-09T08:14:47;4.45;;;1.25;;
24143;SDS011;12307;50.828;6.080;2022-09-09T08:17:13;4.85;;;1.17;;
24143;SDS011;12307;50.828;6.080;2022-09-09T08:19:39;3.40;;;1.00;;
24143;SDS011;12307;50.828;6.080;2022-09-09T08:22:05;2.75;;;1.10;;
24143;SDS011;12307;50.828;6.080;2022-09-09T08:24:31;4.57;;;1.20;;
24143;SDS011;12307;50.828;6.080;2022-09-09T08:26:56;4.28;;;0.90;;
24143;SDS011;12307;50.828;6.080;2022-09-09T08:29:22;5.65;;;1.42;;
24143;SDS011;12307;50.828;6.080;2022-09-09T08:31:50;3.60;;;1.10;;
24143;SDS011;12307;50.828;6.080;2022-09-09T08:34:19;3.92;;;1.00;;
24143;SDS011;12307;50.828;6.080;2022-09-09T08:36:45;5.95;;;1.10;;
24143;SDS011;12307;50.828;6.080;2022-09-09T08:39:12;3.35;;;1.10;;
24143;SDS011;12307;50.828;6.080;2022-09-09T08:41:41;3.40;;;1.05;;
24143;SDS011;12307;50.828;6.080;2022-09-09T08:44:31;3.92;;;1.05;;
24143;SDS011;12307;50.828;6.080;2022-09-09T08:47:13;3.10;;;1.23;;
24143;SDS011;12307;50.828;6.080;2022-09-09T08:49:49;2.63;;;0.98;;
24143;SDS011;12307;50.828;6.080;2022-09-09T08:52:25;3.17;;;1.02;;
24143;SDS011;12307;50.828;6.080;2022-09-09T08:54:58;4.88;;;1.20;;
24143;SDS011;12307;50.828;6.080;2022-09-09T08:57:29;3.38;;;1.15;;
24143;SDS011;12307;50.828;6.080;2022-09-09T08:59:57;3.45;;;1.10;;
24143;SDS011;12307;50.828;6.080;2022-09-09T09:02:26;5.15;;;1.52;;
24143;SDS011;12307;50.828;6.080;2022-09-09T09:05:05;3.78;;;1.05;;
24143;SDS011;12307;50.828;6.080;2022-09-09T09:07:48;4.68;;;1.13;;
24143;SDS011;12307;50.828;6.080;2022-09-09T09:10:28;3.50;;;1.20;;
24143;SDS011;12307;50.828;6.080;2022-09-09T09:13:02;2.65;;;1.08;;
24143;SDS011;12307;50.828;6.080;2022-09-09T09:15:30;3.20;;;1.02;;
24143;SDS011;12307;50.828;6.080;2022-09-09T09:18:02;4.75;;;1.20;;
24143;SDS011;12307;50.828;6.080;2022-09-09T09:20:31;3.83;;;1.00;;
24143;SDS011;12307;50.828;6.080;2022-09-09T09:23:06;4.70;;;1.00;;
24143;SDS011;12307;50.828;6.080;2022-09-09T09:25:41;2.40;;;1.00;;
24143;SDS011;12307;50.828;6.080;2022-09-09T09:28:10;4.20;;;1.05;;
24143;SDS011;12307;50.828;6.080;2022-09-09T09:30:42;5.15;;;1.20;;
24143;SDS011;12307;50.828;6.080;2022-09-09T09:33:15;4.57;;;1.15;;
24143;SDS011;12307;50.828;6.080;2022-09-09T09:35:45;4.25;;;1.10;;
24143;SDS011;12307;50.828;6.080;2022-09-09T09:38:15;3.05;;;0.95;;
24143;SDS011;12307;50.828;6.080;2022-09-09T09:40:47;3.45;;;1.08;;
24143;SDS011;12307;50.828;6.080;2022-09-09T09:43:17;4.63;;;0.90;;
24143;SDS011;12307;50.828;6.080;2022-09-09T09:45:45;3.40;;;1.00;;
24143;SDS011;12307;50.828;6.080;2022-09-09T09:48:11;4.97;;;0.88;;
24143;SDS011;12307;50.828;6.080;2022-09-09T09:50:46;3.17;;;1.00;;
24143;SDS011;12307;50.828;6.080;2022-09-09T09:53:17;5.10;;;1.10;;
24143;SDS011;12307;50.828;6.080;2022-09-09T09:55:47;3.17;;;1.10;;
24143;SDS011;12307;50.828;6.080;2022-09-09T09:58:18;4.07;;;1.10;;
24143;SDS011;12307;50.828;6.080;2022-09-09T10:00:47;4.22;;;1.00;;
24143;SDS011;12307;50.828;6.080;2022-09-09T10:03:19;3.10;;;0.88;;
24143;SDS011;12307;50.828;6.080;2022-09-09T10:05:48;3.50;;;0.98;;
24143;SDS011;12307;50.828;6.080;2022-09-09T10:08:15;5.03;;;0.95;;
24143;SDS011;12307;50.828;6.080;2022-09-09T10:10:46;2.63;;;0.90;;
24143;SDS011;12307;50.828;6.080;2022-09-09T10:13:23;4.80;;;1.15;;
24143;SDS011;12307;50.828;6.080;2022-09-09T10:15:58;3.35;;;1.05;;
24143;SDS011;12307;50.828;6.080;2022-09-09T10:18:40;3.35;;;0.90;;
24143;SDS011;12307;50.828;6.080;2022-09-09T10:21:23;3.95;;;1.00;;
24143;SDS011;12307;50.828;6.080;2022-09-09T10:24:06;4.68;;;1.20;;
24143;SDS011;12307;50.828;6.080;2022-09-09T10:26:48;5.63;;;1.20;;
24143;SDS011;12307;50.828;6.080;2022-09-09T10:29:23;5.25;;;1.27;;
24143;SDS011;12307;50.828;6.080;2022-09-09T10:32:02;3.75;;;1.00;;
24143;SDS011;12307;50.828;6.080;2022-09-09T10:34:46;3.67;;;1.13;;
24143;SDS011;12307;50.828;6.080;2022-09-09T10:37:24;6.28;;;1.00;;
24143;SDS011;12307;50.828;6.080;2022-09-09T10:39:59;4.97;;;1.00;;
24143;SDS011;12307;50.828;6.080;2022-09-09T10:42:30;2.78;;;1.00;;
24143;SDS011;12307;50.828;6.080;2022-09-09T10:45:00;3.20;;;1.00;;
24143;SDS011;12307;50.828;6.080;2022-09-09T10:47:52;5.13;;;1.13;;
24143;SDS011;12307;50.828;6.080;2022-09-09T10:50:50;6.55;;;1.10;;
24143;SDS011;12307;50.828;6.080;2022-09-09T10:53:24;5.25;;;1.00;;
24143;SDS011;12307;50.828;6.080;2022-09-09T10:56:01;4.32;;;1.02;;
24143;SDS011;12307;50.828;6.080;2022-09-09T10:58:33;4.00;;;0.98;;
24143;SDS011;12307;50.828;6.080;2022-09-09T11:01:08;4.82;;;1.08;;
24143;SDS011;12307;50.828;6.080;2022-09-09T11:03:41;3.05;;;1.00;;
24143;SDS011;12307;50.828;6.080;2022-09-09T11:06:09;5.60;;;1.33;;
24143;SDS011;12307;50.828;6.080;2022-09-09T11:08:40;4.93;;;1.10;;
24143;SDS011;12307;50.828;6.080;2022-09-09T11:11:09;4.72;;;1.38;;
24143;SDS011;12307;50.828;6.080;2022-09-09T11:13:39;4.03;;;1.30;;
24143;SDS011;12307;50.828;6.080;2022-09-09T11:16:14;3.47;;;1.00;;
24143;SDS011;12307;50.828;6.080;2022-09-09T11:18:46;3.97;;;1.30;;
24143;SDS011;12307;50.828;6.080;2022-09-09T11:21:14;4.30;;;1.10;;
24143;SDS011;12307;50.828;6.080;2022-09-09T11:23:47;3.35;;;1.10;;
24143;SDS011;12307;50.828;6.080;2022-09-09T11:26:18;4.13;;;1.05;;
24143;SDS011;12307;50.828;6.080;2022-09-09T11:28:54;5.13;;;1.27;;
24143;SDS011;12307;50.828;6.080;2022-09-09T11:31:33;4.30;;;1.17;;
24143;SDS011;12307;50.828;6.080;2022-09-09T11:34:13;3.53;;;1.13;;
24143;SDS011;12307;50.828;6.080;2022-09-09T11:37:06;4.03;;;0.98;;
24143;SDS011;12307;50.828;6.080;2022-09-09T11:39:56;4.57;;;1.15;;
24143;SDS011;12307;50.828;6.080;2022-09-09T11:42:33;4.80;;;1.40;;
24143;SDS011;12307;50.828;6.080;2022-09-09T11:45:07;5.82;;;1.27;;
24143;SDS011;12307;50.828;6.080;2022-09-09T11:47:36;3.47;;;1.15;;
24143;SDS011;12307;50.828;6.080;2022-09-09T11:50:09;4.18;;;0.93;;
24143;SDS011;12307;50.828;6.080;2022-09-09T11:52:37;3.25;;;0.90;;
24143;SDS011;12307;50.828;6.080;2022-09-09T11:55:09;3.45;;;0.82;;
24143;SDS011;12307;50.828;6.080;2022-09-09T11:57:48;3.33;;;1.02;;
24143;SDS011;12307;50.828;6.080;2022-09-09T12:00:33;3.55;;;1.00;;
24143;SDS011;12307;50.828;6.080;2022-09-09T12:03:00;2.28;;;0.80;;
24143;SDS011;12307;50.828;6.080;2022-09-09T12:05:34;2.35;;;0.60;;
24143;SDS011;12307;50.828;6.080;2022-09-09T12:08:03;2.20;;;0.90;;
24143;SDS011;12307;50.828;6.080;2022-09-09T12:10:32;4.85;;;0.98;;
24143;SDS011;12307;50.828;6.080;2022-09-09T12:13:07;3.60;;;1.00;;
24143;SDS011;12307;50.828;6.080;2022-09-09T12:15:46;3.38;;;0.88;;
24143;SDS011;12307;50.828;6.080;2022-09-09T12:18:14;4.18;;;0.90;;
24143;SDS011;12307;50.828;6.080;2022-09-09T12:20:50;2.75;;;0.80;;
24143;SDS011;12307;50.828;6.080;2022-09-09T12:23:24;4.53;;;1.23;;
24143;SDS011;12307;50.828;6.080;2022-09-09T12:26:05;3.03;;;0.90;;
24143;SDS011;12307;50.828;6.080;2022-09-09T12:28:46;3.58;;;1.00;;
24143;SDS011;12307;50.828;6.080;2022-09-09T12:31:20;2.40;;;0.70;;
24143;SDS011;12307;50.828;6.080;2022-09-09T12:33:49;4.13;;;1.00;;
24143;SDS011;12307;50.828;6.080;2022-09-09T12:36:18;1.70;;;0.70;;
24143;SDS011;12307;50.828;6.080;2022-09-09T12:38:46;2.75;;;0.98;;
24143;SDS011;12307;50.828;6.080;2022-09-09T12:41:20;2.75;;;0.88;;
24143;SDS011;12307;50.828;6.080;2022-09-09T12:43:47;3.03;;;0.70;;
24143;SDS011;12307;50.828;6.080;2022-09-09T12:46:20;2.95;;;1.00;;
24143;SDS011;12307;50.828;6.080;2022-09-09T12:48:51;3.22;;;0.80;;
24143;SDS011;12307;50.828;6.080;2022-09-09T12:51:19;2.75;;;1.00;;
24143;SDS011;12307;50.828;6.080;2022-09-09T12:53:50;2.60;;;1.10;;
24143;SDS011;12307;50.828;6.080;2022-09-09T12:56:21;3.47;;;1.10;;
24143;SDS011;12307;50.828;6.080;2022-09-09T12:58:50;2.72;;;0.80;;
24143;SDS011;12307;50.828;6.080;2022-09-09T13:01:20;3.80;;;0.95;;
24143;SDS011;12307;50.828;6.080;2022-09-09T13:03:48;2.25;;;0.88;;
24143;SDS011;12307;50.828;6.080;2022-09-09T13:06:17;2.35;;;0.80;;
24143;SDS011;12307;50.828;6.080;2022-09-09T13:08:46;2.45;;;0.77;;
24143;SDS011;12307;50.828;6.080;2022-09-09T13:11:12;3.05;;;0.80;;
24143;SDS011;12307;50.828;6.080;2022-09-09T13:13:43;2.63;;;0.90;;
24143;SDS011;12307;50.828;6.080;2022-09-09T13:16:18;3.42;;;0.90;;
24143;SDS011;12307;50.828;6.080;2022-09-09T13:18:46;4.22;;;0.95;;
24143;SDS011;12307;50.828;6.080;2022-09-09T13:21:12;2.55;;;1.05;;
24143;SDS011;12307;50.828;6.080;2022-09-09T13:23:39;2.72;;;1.00;;
24143;SDS011;12307;50.828;6.080;2022-09-09T13:26:05;2.65;;;0.88;;
24143;SDS011;12307;50.828;6.080;2022-09-09T13:28:45;2.42;;;0.73;;
24143;SDS011;12307;50.828;6.080;2022-09-09T13:31:19;1.98;;;0.90;;
24143;SDS011;12307;50.828;6.080;2022-09-09T13:33:46;5.38;;;0.90;;
24143;SDS011;12307;50.828;6.080;2022-09-09T13:36:12;2.88;;;1.08;;
24143;SDS011;12307;50.828;6.080;2022-09-09T13:38:52;3.70;;;1.20;;
24143;SDS011;12307;50.828;6.080;2022-09-09T13:41:20;2.92;;;0.77;;
24143;SDS011;12307;50.828;6.080;2022-09-09T13:43:48;2.75;;;0.80;;
24143;SDS011;12307;50.828;6.080;2022-09-09T13:46:24;3.13;;;0.77;;
24143;SDS011;12307;50.828;6.080;2022-09-09T13:48:53;4.75;;;1.15;;
24143;SDS011;12307;50.828;6.080;2022-09-09T13:51:23;1.83;;;0.73;;
24143;SDS011;12307;50.828;6.080;2022-09-09T13:53:54;3.45;;;0.93;;
24143;SDS011;12307;50.828;6.080;2022-09-09T13:56:20;3.47;;;0.95;;
24143;SDS011;12307;50.828;6.080;2022-09-09T13:58:46;3.05;;;0.80;;
24143;SDS011;12307;50.828;6.080;2022-09-09T14:01:13;4.25;;;1.33;;
24143;SDS011;12307;50.828;6.080;2022-09-09T14:03:38;3.78;;;1.30;;
24143;SDS011;12307;50.828;6.080;2022-09-09T14:06:04;5.18;;;1.13;;
24143;SDS011;12307;50.828;6.080;2022-09-09T14:08:30;5.05;;;1.10;;
24143;SDS011;12307;50.828;6.080;2022-09-09T14:11:01;3.85;;;0.98;;
24143;SDS011;12307;50.828;6.080;2022-09-09T14:13:27;3.30;;;0.90;;
24143;SDS011;12307;50.828;6.080;2022-09-09T14:15:53;4.13;;;1.08;;
24143;SDS011;12307;50.828;6.080;2022-09-09T14:18:20;3.95;;;1.08;;
24143;SDS011;12307;50.828;6.080;2022-09-09T14:20:47;3.97;;;0.93;;
24143;SDS011;12307;50.828;6.080;2022-09-09T14:23:13;3.92;;;1.02;;
24143;SDS011;12307;50.828;6.080;2022-09-09T14:25:39;4.53;;;1.30;;
24143;SDS011;12307;50.828;6.080;2022-09-09T14:28:07;3.42;;;1.08;;
24143;SDS011;12307;50.828;6.080;2022-09-09T14:30:34;3.55;;;0.95;;
24143;SDS011;12307;50.828;6.080;2022-09-09T14:33:00;4.53;;;1.00;;
24143;SDS011;12307;50.828;6.080;2022-09-09T14:35:27;3.72;;;0.90;;
24143;SDS011;12307;50.828;6.080;2022-09-09T14:37:53;3.80;;;1.05;;
24143;SDS011;12307;50.828;6.080;2022-09-09T14:40:18;3.15;;;0.85;;
24143;SDS011;12307;50.828;6.080;2022-09-09T14:42:44;3.40;;;1.10;;
24143;SDS011;12307;50.828;6.080;2022-09-09T14:45:10;5.00;;;0.90;;
24143;SDS011;12307;50.828;6.080;2022-09-09T14:47:36;3.45;;;1.20;;
24143;SDS011;12307;50.828;6.080;2022-09-09T14:50:03;4.10;;;0.93;;
24143;SDS011;12307;50.828;6.080;2022-09-09T14:52:31;3.25;;;0.98;;
24143;SDS011;12307;50.828;6.080;2022-09-09T14:54:57;5.10;;;1.60;;
24143;SDS011;12307;50.828;6.080;2022-09-09T14:57:22;4.70;;;1.40;;
24143;SDS011;12307;50.828;6.080;2022-09-09T14:59:48;3.92;;;1.08;;
24143;SDS011;12307;50.828;6.080;2022-09-09T15:02:15;2.95;;;1.15;;
24143;SDS011;12307;50.828;6.080;2022-09-09T15:04:40;5.32;;;1.25;;